Time;durP1;ratioP1;P1;durP2;ratioP2;P2;SDS_P1;SDS_P2;PMS_P1;PMS_P2;Temp;Humidity;BMP_temperature;BMP_pressure;BME280_temperature;BME280_humidity;BME280_pressure;Samples;Min_cycle;Max_cycle;Signal;HPM_P1;HPM_P2
2022/10/25 00:00:28;;;;;;;83.50;78.32;;;14.30;99.90;;;;;;5050531;28;20712;-58
2022/10/25 00:02:53;;;;;;;84.25;79.18;;;14.30;99.90;;;;;;5069682;28;20500;-59
2022/10/25 00:05:19;;;;;;;76.95;72.25;;;14.30;99.90;;;;;;5050570;28;20419;-57
2022/10/25 00:07:44;;;;;;;77.93;73.43;;;14.30;99.90;;;;;;5051708;28;20911;-59
2022/10/25 00:10:10;;;;;;;71.93;67.43;;;14.30;99.90;;;;;;5053486;28;20621;-58
2022/10/25 00:12:44;;;;;;;71.70;67.50;;;14.20;99.90;;;;;;5053882;28;20384;-59
2022/10/25 00:15:13;;;;;;;72.15;67.93;;;14.20;99.90;;;;;;5056262;28;20901;-58
2022/10/25 00:17:39;;;;;;;80.10;75.10;;;14.20;99.90;;;;;;5053337;28;20500;-59
2022/10/25 00:20:05;;;;;;;68.25;63.97;;;14.10;99.90;;;;;;5053609;28;20403;-59
2022/10/25 00:22:31;;;;;;;67.65;63.83;;;14.10;99.90;;;;;;5053348;28;20384;-59
2022/10/25 00:24:56;;;;;;;65.18;61.15;;;14.10;99.90;;;;;;5052301;28;20411;-59
2022/10/25 00:27:22;;;;;;;74.83;70.37;;;14.10;99.90;;;;;;5052663;28;20394;-55
2022/10/25 00:29:47;;;;;;;61.63;57.80;;;14.10;99.90;;;;;;5069218;28;20410;-56
2022/10/25 00:32:13;;;;;;;62.07;58.17;;;14.10;99.90;;;;;;5051500;28;20414;-55
2022/10/25 00:34:41;;;;;;;57.37;54.07;;;14.10;99.90;;;;;;5052565;28;20392;-58
2022/10/25 00:37:07;;;;;;;59.63;56.13;;;14.00;99.90;;;;;;5053609;28;20743;-58
2022/10/25 00:39:32;;;;;;;66.30;62.40;;;14.00;99.90;;;;;;5071254;28;20380;-57
2022/10/25 00:41:58;;;;;;;68.97;64.87;;;14.00;99.90;;;;;;5052775;28;20642;-59
2022/10/25 00:44:39;;;;;;;67.38;63.35;;;14.10;99.90;;;;;;5069802;28;20799;-58
2022/10/25 00:47:16;;;;;;;80.90;76.00;;;14.10;99.90;;;;;;5051221;28;20745;-59
2022/10/25 00:49:45;;;;;;;67.28;63.42;;;14.10;99.90;;;;;;5051379;28;20443;-56
2022/10/25 00:52:11;;;;;;;75.65;71.13;;;14.10;99.90;;;;;;5051283;28;20376;-56
2022/10/25 00:54:42;;;;;;;68.10;64.25;;;14.00;99.90;;;;;;5051726;28;20414;-57
2022/10/25 00:57:14;;;;;;;64.65;60.75;;;14.00;99.90;;;;;;5052260;28;20383;-57
2022/10/25 00:59:42;;;;;;;66.85;62.80;;;13.90;99.90;;;;;;5053363;28;20742;-58
2022/10/25 01:02:08;;;;;;;63.10;59.25;;;13.90;99.90;;;;;;5053849;28;20394;-53
2022/10/25 01:04:33;;;;;;;58.38;54.50;;;13.90;99.90;;;;;;5071895;28;20399;-56
2022/10/25 01:07:00;;;;;;;56.97;53.35;;;13.90;99.90;;;;;;5055009;28;20659;-57
2022/10/25 01:09:29;;;;;;;60.03;56.15;;;13.90;99.90;;;;;;5054300;28;20390;-57
2022/10/25 01:11:55;;;;;;;66.00;62.03;;;13.90;99.90;;;;;;5052321;28;20440;-57
2022/10/25 01:14:21;;;;;;;65.88;61.97;;;13.90;99.90;;;;;;5050527;28;20395;-59
2022/10/25 01:17:16;;;;;;;66.65;62.55;;;13.90;99.90;;;;;;5051563;28;20388;-58
2022/10/25 01:20:03;;;;;;;68.97;64.78;;;14.00;99.90;;;;;;5046390;28;20388;-59
2022/10/25 01:22:40;;;;;;;75.18;70.28;;;14.00;99.90;;;;;;5051964;28;20548;-57
2022/10/25 01:25:24;;;;;;;73.85;69.50;;;14.00;99.90;;;;;;5052508;28;20426;-56
2022/10/25 01:27:52;;;;;;;74.35;69.95;;;14.00;99.90;;;;;;5072919;28;20380;-56
2022/10/25 01:30:41;;;;;;;75.20;70.85;;;14.00;99.90;;;;;;5054398;28;20696;-59
2022/10/25 01:33:23;;;;;;;78.47;74.03;;;14.00;99.90;;;;;;5055483;28;20379;-59
2022/10/25 01:36:12;;;;;;;76.43;72.05;;;14.00;99.90;;;;;;5050809;28;20540;-57
2022/10/25 01:38:43;;;;;;;81.63;77.03;;;14.00;99.90;;;;;;5050864;28;20785;-55
2022/10/25 01:41:40;;;;;;;74.82;70.43;;;14.00;99.90;;;;;;5051261;28;20385;-59
2022/10/25 01:44:19;;;;;;;81.35;76.43;;;14.00;99.90;;;;;;5052140;28;20693;-59
2022/10/25 01:46:52;;;;;;;73.80;69.40;;;14.00;99.90;;;;;;5052178;28;20397;-57
2022/10/25 01:49:27;;;;;;;70.05;65.97;;;14.10;99.90;;;;;;5050706;28;20786;-58
2022/10/25 01:51:53;;;;;;;67.63;63.53;;;14.10;99.90;;;;;;5051009;28;20413;-58
2022/10/25 01:54:24;;;;;;;65.78;61.47;;;14.00;99.90;;;;;;5050215;28;20486;-59
2022/10/25 01:57:18;;;;;;;61.47;57.58;;;14.00;99.90;;;;;;5050379;28;20734;-59
2022/10/25 02:00:18;;;;;;;68.63;64.57;;;14.00;99.90;;;;;;5050755;28;20393;-58
2022/10/25 02:03:14;;;;;;;72.70;68.30;;;14.10;99.90;;;;;;5050273;28;20677;-58
2022/10/25 02:05:58;;;;;;;72.33;67.87;;;14.10;99.90;;;;;;5048555;28;20666;-57
2022/10/25 02:08:36;;;;;;;78.13;73.30;;;14.10;99.90;;;;;;5051062;28;20400;-59
2022/10/25 02:11:19;;;;;;;68.32;64.05;;;14.00;99.90;;;;;;5049446;28;20380;-58
2022/10/25 02:14:06;;;;;;;63.15;59.13;;;14.00;99.90;;;;;;5051910;28;20437;-59
2022/10/25 02:16:38;;;;;;;57.33;53.80;;;14.00;99.90;;;;;;5052650;28;20377;-59
2022/10/25 02:19:07;;;;;;;55.30;51.70;;;14.00;99.90;;;;;;5053832;28;20717;-59
2022/10/25 02:21:35;;;;;;;54.85;51.20;;;14.00;99.90;;;;;;5053764;28;20439;-59
2022/10/25 02:24:06;;;;;;;56.00;51.90;;;14.00;99.90;;;;;;5052519;28;20385;-59
2022/10/25 02:26:34;;;;;;;59.97;56.35;;;14.00;99.90;;;;;;5052735;28;20572;-56
2022/10/25 02:29:02;;;;;;;58.83;55.03;;;14.00;99.90;;;;;;5050544;28;20389;-57
2022/10/25 02:31:29;;;;;;;60.15;56.20;;;14.00;99.90;;;;;;5053151;28;20725;-57
2022/10/25 02:33:55;;;;;;;60.80;57.03;;;14.00;99.90;;;;;;5056403;28;20541;-59
2022/10/25 02:36:22;;;;;;;63.67;59.70;;;14.00;99.90;;;;;;5055112;28;20422;-59
2022/10/25 02:38:51;;;;;;;60.90;57.03;;;14.00;99.90;;;;;;5054511;28;20385;-58
2022/10/25 02:41:18;;;;;;;63.88;59.95;;;14.00;99.90;;;;;;5052701;28;20642;-56
2022/10/25 02:43:43;;;;;;;62.50;58.70;;;14.00;99.90;;;;;;5053173;28;20397;-57
2022/10/25 02:46:12;;;;;;;66.90;62.57;;;14.00;99.90;;;;;;5052657;28;20550;-59
2022/10/25 02:48:38;;;;;;;66.05;61.97;;;14.00;99.90;;;;;;5053263;28;20380;-59
2022/10/25 02:51:06;;;;;;;70.40;65.90;;;14.00;99.90;;;;;;5053672;28;20385;-59
2022/10/25 02:53:32;;;;;;;70.70;66.30;;;14.00;99.90;;;;;;5052275;28;20627;-59
2022/10/25 02:56:03;;;;;;;67.53;63.15;;;14.00;99.90;;;;;;5053245;28;20389;-58
2022/10/25 02:58:30;;;;;;;72.68;68.25;;;14.00;99.90;;;;;;5053603;28;20855;-59
2022/10/25 03:00:56;;;;;;;68.13;63.63;;;14.00;99.90;;;;;;5054653;28;20495;-59
2022/10/25 03:03:22;;;;;;;68.90;64.53;;;13.90;99.90;;;;;;5054458;28;20808;-57
2022/10/25 03:05:48;;;;;;;67.03;62.83;;;13.90;99.90;;;;;;5052385;28;20405;-60
2022/10/25 03:08:13;;;;;;;68.60;64.47;;;13.90;99.90;;;;;;5053807;28;20472;-57
2022/10/25 03:10:39;;;;;;;72.75;68.25;;;14.00;99.90;;;;;;5054726;28;20396;-60
2022/10/25 03:13:04;;;;;;;75.47;71.07;;;13.90;99.90;;;;;;5053801;28;20406;-59
2022/10/25 03:15:30;;;;;;;79.50;74.90;;;14.00;99.90;;;;;;5054271;28;20385;-59
2022/10/25 03:17:55;;;;;;;81.88;77.05;;;14.00;99.90;;;;;;5053791;28;20425;-53
2022/10/25 03:20:21;;;;;;;83.97;78.97;;;14.00;99.90;;;;;;5053241;28;20462;-65
2022/10/25 03:22:46;;;;;;;78.95;74.45;;;14.00;99.90;;;;;;5053237;28;20408;-59
2022/10/25 03:25:12;;;;;;;82.10;77.30;;;14.00;99.90;;;;;;5050728;28;20928;-59
2022/10/25 03:27:37;;;;;;;75.83;71.00;;;13.90;99.90;;;;;;5050600;28;20400;-58
2022/10/25 03:30:04;;;;;;;76.72;71.90;;;13.90;99.90;;;;;;5049659;28;20394;-59
2022/10/25 03:32:29;;;;;;;83.57;78.53;;;13.90;99.90;;;;;;5049663;28;20382;-57
2022/10/25 03:34:54;;;;;;;82.18;77.43;;;14.00;99.90;;;;;;5049996;28;20458;-59
2022/10/25 03:37:20;;;;;;;76.70;72.00;;;14.00;99.90;;;;;;5071585;28;20652;-60
2022/10/25 03:39:45;;;;;;;81.28;76.35;;;14.00;99.90;;;;;;5071220;28;20402;-58
2022/10/25 03:42:11;;;;;;;78.60;73.77;;;14.00;99.90;;;;;;5053635;28;20498;-59
2022/10/25 03:44:36;;;;;;;74.17;69.50;;;14.00;99.90;;;;;;5055201;28;20503;-58
2022/10/25 03:47:02;;;;;;;79.53;74.73;;;14.00;99.90;;;;;;5057053;28;20760;-60
2022/10/25 03:49:28;;;;;;;83.80;78.93;;;14.00;99.90;;;;;;5057109;28;20388;-54
2022/10/25 03:51:53;;;;;;;81.80;76.93;;;14.00;99.90;;;;;;5056820;28;20482;-57
2022/10/25 03:54:19;;;;;;;83.27;78.40;;;14.00;99.90;;;;;;5055397;28;20401;-60
2022/10/25 03:56:44;;;;;;;80.17;75.03;;;14.00;99.90;;;;;;5056320;28;20405;-57
2022/10/25 03:59:10;;;;;;;85.00;80.05;;;14.00;99.90;;;;;;5053833;28;20395;-57
2022/10/25 04:01:35;;;;;;;77.47;72.87;;;14.00;99.90;;;;;;5068086;28;20391;-59
2022/10/25 04:04:01;;;;;;;92.43;87.00;;;14.00;99.90;;;;;;5049724;28;20428;-59
2022/10/25 04:06:26;;;;;;;101.33;95.67;;;14.00;99.90;;;;;;5067864;28;20813;-54
2022/10/25 04:08:52;;;;;;;96.80;91.40;;;14.10;99.90;;;;;;5050853;28;20383;-57
2022/10/25 04:11:17;;;;;;;97.05;91.40;;;14.10;99.90;;;;;;5050192;28;20449;-57
2022/10/25 04:13:43;;;;;;;102.80;96.90;;;14.10;99.90;;;;;;5067622;28;20540;-57
2022/10/25 04:16:09;;;;;;;101.22;95.15;;;14.10;99.90;;;;;;5049760;28;20738;-59
2022/10/25 04:18:34;;;;;;;105.93;99.88;;;14.10;99.90;;;;;;5067257;28;20473;-59
2022/10/25 04:21:00;;;;;;;104.50;98.35;;;14.10;99.90;;;;;;5049685;28;20380;-59
2022/10/25 04:23:25;;;;;;;107.37;100.97;;;14.10;99.90;;;;;;5049683;28;20486;-59
2022/10/25 04:25:55;;;;;;;121.10;113.97;;;14.10;99.90;;;;;;5048320;28;20411;-60
2022/10/25 04:28:22;;;;;;;111.20;104.90;;;14.00;99.90;;;;;;5067276;28;20414;-60
2022/10/25 04:30:47;;;;;;;108.70;102.50;;;14.00;99.90;;;;;;5050940;28;20423;-56
2022/10/25 04:33:13;;;;;;;96.65;91.05;;;14.00;99.90;;;;;;5050126;28;20472;-59
2022/10/25 04:35:38;;;;;;;105.07;99.13;;;14.00;99.90;;;;;;5049569;28;20426;-60
2022/10/25 04:38:04;;;;;;;102.20;96.33;;;14.00;99.90;;;;;;5048447;28;20407;-59
2022/10/25 04:40:29;;;;;;;124.13;117.03;;;14.00;99.90;;;;;;5048793;28;20475;-56
2022/10/25 04:42:55;;;;;;;131.30;123.85;;;14.10;99.90;;;;;;5065441;28;20690;-56
2022/10/25 04:45:21;;;;;;;123.80;116.60;;;14.00;99.90;;;;;;5064499;28;20498;-53
2022/10/25 04:47:47;;;;;;;133.37;125.67;;;14.00;99.90;;;;;;5048192;28;20383;-59
2022/10/25 04:50:13;;;;;;;137.03;129.03;;;14.00;99.90;;;;;;5047326;28;20766;-57
2022/10/25 04:52:38;;;;;;;139.85;131.93;;;14.10;99.90;;;;;;5045830;28;20441;-60
2022/10/25 04:55:04;;;;;;;138.30;130.25;;;14.00;99.90;;;;;;5063124;28;20851;-59
2022/10/25 04:57:29;;;;;;;140.57;132.33;;;14.00;99.90;;;;;;5043204;28;20500;-57
2022/10/25 04:59:56;;;;;;;124.50;117.40;;;14.00;99.90;;;;;;5042662;28;20627;-54
2022/10/25 05:02:22;;;;;;;131.50;123.75;;;14.00;99.90;;;;;;5042807;28;20394;-58
2022/10/25 05:04:48;;;;;;;121.43;114.45;;;13.90;99.90;;;;;;5042381;28;20418;-57
2022/10/25 05:07:17;;;;;;;127.82;120.70;;;13.90;99.90;;;;;;5040166;28;20384;-59
2022/10/25 05:09:42;;;;;;;135.02;127.65;;;14.00;99.90;;;;;;5039473;28;20464;-59
2022/10/25 05:12:08;;;;;;;135.37;127.43;;;14.00;99.90;;;;;;5039353;28;20383;-59
2022/10/25 05:14:33;;;;;;;129.75;122.55;;;13.90;99.90;;;;;;5038163;28;20460;-58
2022/10/25 05:16:59;;;;;;;135.50;127.67;;;13.90;99.90;;;;;;5038907;28;20667;-58
2022/10/25 05:19:25;;;;;;;137.63;129.87;;;13.90;99.90;;;;;;5057086;28;20375;-57
2022/10/25 05:21:50;;;;;;;136.03;128.33;;;13.90;99.90;;;;;;5039567;28;20679;-56
2022/10/25 05:24:16;;;;;;;135.32;127.80;;;13.90;99.90;;;;;;5040162;28;20492;-58
2022/10/25 05:26:42;;;;;;;145.57;137.30;;;13.90;99.90;;;;;;5038980;28;20380;-59
2022/10/25 05:29:12;;;;;;;131.03;123.53;;;13.90;99.90;;;;;;5040908;28;20442;-57
2022/10/25 05:31:40;;;;;;;127.30;120.18;;;13.90;99.90;;;;;;5042017;28;20411;-58
2022/10/25 05:34:06;;;;;;;129.57;122.20;;;13.90;99.90;;;;;;5042091;28;20538;-59
2022/10/25 05:36:32;;;;;;;125.78;118.70;;;13.90;99.90;;;;;;5044262;28;20548;-57
2022/10/25 05:38:59;;;;;;;121.90;114.90;;;13.90;99.90;;;;;;5043811;28;20372;-58
2022/10/25 05:41:25;;;;;;;128.15;120.72;;;13.90;99.90;;;;;;5042897;28;20444;-55
2022/10/25 05:43:50;;;;;;;125.00;118.07;;;13.90;99.90;;;;;;5042580;28;20659;-58
2022/10/25 05:46:22;;;;;;;128.38;120.97;;;13.80;99.90;;;;;;5043459;28;20393;-58
2022/10/25 05:48:49;;;;;;;112.25;105.63;;;13.80;99.90;;;;;;5046526;28;20383;-58
2022/10/25 05:51:18;;;;;;;106.75;100.75;;;13.80;99.90;;;;;;5066253;28;20387;-59
2022/10/25 05:53:44;;;;;;;106.30;100.28;;;13.80;99.90;;;;;;5047429;28;20528;-58
2022/10/25 05:56:10;;;;;;;107.55;101.47;;;13.80;99.90;;;;;;5046655;28;20491;-57
2022/10/25 05:58:35;;;;;;;100.35;94.72;;;13.80;99.90;;;;;;5047841;28;20478;-56
2022/10/25 06:01:01;;;;;;;97.07;91.50;;;13.80;99.90;;;;;;5062922;28;20474;-57
2022/10/25 06:03:26;;;;;;;100.15;94.38;;;13.80;99.90;;;;;;5041914;28;20641;-58
2022/10/25 06:05:52;;;;;;;101.73;95.73;;;13.80;99.90;;;;;;5041179;28;20403;-58
2022/10/25 06:08:17;;;;;;;94.60;89.07;;;13.80;99.90;;;;;;5040499;28;20387;-57
2022/10/25 06:10:43;;;;;;;93.20;87.90;;;13.80;99.90;;;;;;5042500;28;20500;-57
2022/10/25 06:13:08;;;;;;;104.57;98.57;;;13.80;99.90;;;;;;5062054;28;20407;-54
2022/10/25 06:15:37;;;;;;;100.57;94.63;;;13.80;99.90;;;;;;5061362;28;20395;-57
2022/10/25 06:18:02;;;;;;;97.28;91.55;;;13.80;99.90;;;;;;5043808;28;20779;-58
2022/10/25 06:20:28;;;;;;;100.28;94.07;;;13.80;99.90;;;;;;5041836;28;20472;-58
2022/10/25 06:22:53;;;;;;;100.32;94.38;;;13.90;99.90;;;;;;5041470;28;20379;-58
2022/10/25 06:25:19;;;;;;;100.87;95.10;;;13.90;99.90;;;;;;5042176;28;20608;-59
2022/10/25 06:27:44;;;;;;;94.65;89.15;;;13.90;99.90;;;;;;5041587;28;20391;-58
2022/10/25 06:30:10;;;;;;;94.17;88.60;;;14.00;99.90;;;;;;5040103;28;20491;-53
2022/10/25 06:32:37;;;;;;;82.57;77.53;;;14.00;99.90;;;;;;5040540;28;20474;-59
2022/10/25 06:35:03;;;;;;;79.10;74.00;;;14.00;99.90;;;;;;5054886;28;20517;-56
2022/10/25 06:37:29;;;;;;;80.10;75.05;;;13.90;99.90;;;;;;5038460;28;20934;-58
2022/10/25 06:39:54;;;;;;;67.85;63.53;;;13.90;99.90;;;;;;5035900;28;20383;-57
2022/10/25 06:42:20;;;;;;;72.03;67.37;;;13.90;99.90;;;;;;5052405;28;20421;-55
2022/10/25 06:44:45;;;;;;;75.87;71.27;;;13.90;99.90;;;;;;5052613;28;20415;-58
2022/10/25 06:47:11;;;;;;;73.05;68.45;;;13.90;99.90;;;;;;5036079;28;20385;-59
2022/10/25 06:49:36;;;;;;;74.67;69.77;;;13.90;99.90;;;;;;5037497;28;20641;-58
2022/10/25 06:52:02;;;;;;;69.70;65.00;;;13.80;99.90;;;;;;5055251;28;20833;-58
2022/10/25 06:54:27;;;;;;;72.13;67.23;;;13.80;99.90;;;;;;5039689;28;20566;-58
2022/10/25 06:56:53;;;;;;;72.20;67.47;;;13.90;99.90;;;;;;5058640;28;20513;-59
2022/10/25 06:59:19;;;;;;;72.47;67.40;;;13.90;99.90;;;;;;5037253;28;20747;-57
2022/10/25 07:01:45;;;;;;;70.95;66.40;;;13.90;99.90;;;;;;5035639;28;20423;-59
2022/10/25 07:04:11;;;;;;;70.32;65.90;;;13.90;99.90;;;;;;5036081;28;20802;-59
2022/10/25 07:06:37;;;;;;;66.03;61.88;;;13.90;99.90;;;;;;5032676;28;20646;-59
2022/10/25 07:09:04;;;;;;;70.85;66.25;;;13.90;99.90;;;;;;5050956;28;20371;-59
2022/10/25 07:11:31;;;;;;;68.25;63.97;;;14.00;99.90;;;;;;5032517;28;20379;-58
2022/10/25 07:13:58;;;;;;;70.35;65.93;;;13.90;99.90;;;;;;5034154;28;20429;-59
2022/10/25 07:16:25;;;;;;;68.35;64.10;;;14.00;99.90;;;;;;5036427;28;20738;-59
2022/10/25 07:18:51;;;;;;;70.47;65.68;;;14.00;99.90;;;;;;5052957;28;20446;-58
2022/10/25 07:21:19;;;;;;;67.30;62.90;;;14.00;99.90;;;;;;5036888;28;20690;-58
2022/10/25 07:23:45;;;;;;;71.80;67.25;;;14.00;99.90;;;;;;5036616;28;20700;-59
2022/10/25 07:26:13;;;;;;;68.13;63.75;;;14.00;99.90;;;;;;5034937;28;20554;-58
2022/10/25 07:28:39;;;;;;;73.63;68.95;;;14.00;99.90;;;;;;5053173;28;20394;-56
2022/10/25 07:31:06;;;;;;;70.25;65.78;;;14.00;99.90;;;;;;5032323;28;20469;-59
2022/10/25 07:33:32;;;;;;;69.10;64.72;;;14.00;99.90;;;;;;5034014;28;20775;-58
2022/10/25 07:35:57;;;;;;;66.47;62.10;;;14.10;99.90;;;;;;5029220;28;20590;-59
2022/10/25 07:38:23;;;;;;;75.43;70.63;;;14.10;99.90;;;;;;5029352;28;20393;-59
2022/10/25 07:40:55;;;;;;;71.80;67.00;;;14.10;99.90;;;;;;5029847;28;20396;-59
2022/10/25 07:43:20;;;;;;;69.47;65.07;;;14.10;99.90;;;;;;5028995;28;20397;-59
2022/10/25 07:45:48;;;;;;;68.03;63.75;;;14.10;99.90;;;;;;5030409;28;20694;-57
2022/10/25 07:48:13;;;;;;;81.03;75.68;;;14.10;99.90;;;;;;5026597;28;20447;-59
2022/10/25 07:50:39;;;;;;;74.37;69.97;;;14.10;99.90;;;;;;5029029;28;20390;-55
2022/10/25 07:53:05;;;;;;;79.57;74.63;;;14.20;99.90;;;;;;5029086;28;20513;-59
2022/10/25 07:55:30;;;;;;;85.40;79.90;;;14.20;99.90;;;;;;5027907;28;20793;-59
2022/10/25 07:58:00;;;;;;;87.40;82.03;;;14.30;99.90;;;;;;5024011;28;20619;-59
2022/10/25 08:00:26;;;;;;;91.40;85.63;;;14.30;99.90;;;;;;5027381;28;20416;-57
2022/10/25 08:02:51;;;;;;;88.50;83.07;;;14.40;99.90;;;;;;5027049;28;20717;-58
2022/10/25 08:05:17;;;;;;;100.50;94.35;;;14.40;99.90;;;;;;5026267;28;20417;-55
2022/10/25 08:07:42;;;;;;;80.30;75.27;;;14.40;99.90;;;;;;5025516;28;20624;-59
2022/10/25 08:10:08;;;;;;;84.45;79.30;;;14.30;99.90;;;;;;5032740;28;20410;-59
2022/10/25 08:12:34;;;;;;;84.05;78.90;;;14.30;99.90;;;;;;5036749;28;20680;-58
2022/10/25 08:14:59;;;;;;;82.13;76.83;;;14.30;99.90;;;;;;5036397;28;20910;-57
2022/10/25 08:17:25;;;;;;;83.00;77.73;;;14.30;99.90;;;;;;5037715;28;20480;-59
2022/10/25 08:19:51;;;;;;;86.35;81.07;;;14.30;99.90;;;;;;5038338;28;20405;-59
2022/10/25 08:22:16;;;;;;;87.00;81.50;;;14.30;99.90;;;;;;5038826;28;20388;-57
2022/10/25 08:24:42;;;;;;;90.95;85.30;;;14.30;99.90;;;;;;5040055;28;20947;-59
2022/10/25 08:27:08;;;;;;;87.23;81.77;;;14.40;99.90;;;;;;5038519;28;20876;-59
2022/10/25 08:29:34;;;;;;;81.70;76.60;;;14.40;99.90;;;;;;5040415;28;20470;-59
2022/10/25 08:31:59;;;;;;;89.13;83.55;;;14.40;99.90;;;;;;5041547;28;20382;-57
2022/10/25 08:34:25;;;;;;;93.88;88.05;;;14.40;99.90;;;;;;5042746;28;20465;-58
2022/10/25 08:36:50;;;;;;;90.93;85.33;;;14.40;99.90;;;;;;5058105;28;20677;-59
2022/10/25 08:39:16;;;;;;;96.55;90.28;;;14.50;99.90;;;;;;5044999;28;20383;-57
2022/10/25 08:41:46;;;;;;;99.25;93.57;;;14.50;99.90;;;;;;5042261;28;20472;-54
2022/10/25 08:44:19;;;;;;;88.78;83.30;;;14.50;99.90;;;;;;5040085;28;20448;-53
2022/10/25 08:46:52;;;;;;;95.97;90.23;;;14.60;99.90;;;;;;5040981;28;20403;-52
2022/10/25 08:49:39;;;;;;;91.30;85.75;;;14.60;99.90;;;;;;5042417;28;20391;-58
2022/10/25 08:52:17;;;;;;;112.80;106.30;;;14.70;99.90;;;;;;5040305;28;20388;-55
2022/10/25 08:54:43;;;;;;;112.40;105.80;;;14.60;99.90;;;;;;5038939;28;20387;-58
2022/10/25 08:57:24;;;;;;;111.45;104.70;;;14.60;99.90;;;;;;5038528;28;20380;-57
2022/10/25 08:59:59;;;;;;;107.30;101.07;;;14.60;99.90;;;;;;5040282;28;20746;-57
2022/10/25 09:03:01;;;;;;;110.60;104.18;;;14.60;99.90;;;;;;5038791;28;20429;-59
2022/10/25 09:06:08;;;;;;;100.97;94.95;;;14.60;99.90;;;;;;4939346;28;20694;-60
2022/10/25 09:09:08;;;;;;;109.47;103.07;;;14.60;99.90;;;;;;5040096;28;20383;-58
2022/10/25 09:11:50;;;;;;;114.10;107.78;;;14.60;99.90;;;;;;5040580;28;20383;-58
2022/10/25 09:14:35;;;;;;;110.85;104.53;;;14.70;99.90;;;;;;5041851;28;20448;-58
2022/10/25 09:17:16;;;;;;;115.93;109.25;;;14.70;99.90;;;;;;5045472;28;20391;-59
2022/10/25 09:20:06;;;;;;;129.43;121.93;;;14.70;99.90;;;;;;5045838;28;20427;-59
2022/10/25 09:23:05;;;;;;;124.78;117.90;;;14.80;99.90;;;;;;5062375;28;20379;-59
2022/10/25 09:25:41;;;;;;;124.30;117.27;;;14.80;99.90;;;;;;5046340;28;20556;-57
2022/10/25 09:28:16;;;;;;;124.30;117.27;;;14.80;99.90;;;;;;5049447;28;20458;-58
2022/10/25 09:30:43;;;;;;;121.82;114.82;;;14.80;99.90;;;;;;5065835;28;20394;-59
2022/10/25 09:33:12;;;;;;;132.65;125.45;;;14.80;99.90;;;;;;5048897;28;20814;-58
2022/10/25 09:35:47;;;;;;;119.63;113.13;;;14.90;99.90;;;;;;5066388;28;20499;-57
2022/10/25 09:38:38;;;;;;;109.32;103.15;;;15.00;99.90;;;;;;5048052;28;20481;-58
2022/10/25 09:41:29;;;;;;;125.40;118.35;;;15.00;99.90;;;;;;5046789;28;20383;-59
2022/10/25 09:44:14;;;;;;;123.13;116.22;;;15.00;99.90;;;;;;5047959;28;20660;-59
2022/10/25 09:47:20;;;;;;;116.68;110.25;;;15.10;99.90;;;;;;5064802;28;20699;-57
2022/10/25 09:49:56;;;;;;;139.55;131.77;;;15.20;99.90;;;;;;5062785;28;20383;-58
2022/10/25 09:52:44;;;;;;;128.30;121.17;;;15.10;99.90;;;;;;5046749;28;20406;-59
2022/10/25 09:55:32;;;;;;;150.60;142.38;;;15.10;99.90;;;;;;5046599;28;20470;-58
2022/10/25 09:57:58;;;;;;;139.55;131.98;;;15.10;99.90;;;;;;5048637;28;20822;-57
2022/10/25 10:00:24;;;;;;;134.38;127.03;;;15.10;99.90;;;;;;5066693;28;20951;-59
2022/10/25 10:02:49;;;;;;;140.07;132.20;;;15.20;99.90;;;;;;5046103;28;20439;-58
2022/10/25 10:05:18;;;;;;;154.57;146.23;;;15.20;99.90;;;;;;5048492;28;20403;-59
2022/10/25 10:07:45;;;;;;;175.23;165.90;;;15.30;99.90;;;;;;5047223;28;20384;-59
2022/10/25 10:10:18;;;;;;;186.15;176.30;;;15.40;99.90;;;;;;5045641;28;20814;-55
2022/10/25 10:13:21;;;;;;;172.10;162.60;;;15.50;99.90;;;;;;5062783;28;20380;-59
2022/10/25 10:16:09;;;;;;;167.60;158.30;;;15.60;99.90;;;;;;5047050;28;20391;-57
2022/10/25 10:18:34;;;;;;;165.07;155.98;;;15.50;99.90;;;;;;5062981;28;20382;-57
2022/10/25 10:21:09;;;;;;;159.03;150.47;;;15.50;99.90;;;;;;5043189;28;20380;-58
2022/10/25 10:23:43;;;;;;;150.45;142.40;;;15.70;99.90;;;;;;5042465;28;20392;-58
2022/10/25 10:26:23;;;;;;;141.55;133.70;;;15.80;99.90;;;;;;5042239;28;20411;-58
2022/10/25 10:28:53;;;;;;;132.98;125.50;;;15.90;99.90;;;;;;5042301;28;20422;-56
2022/10/25 10:31:18;;;;;;;133.05;125.57;;;15.90;99.90;;;;;;5060285;28;20871;-59
2022/10/25 10:33:50;;;;;;;124.95;117.95;;;16.00;99.90;;;;;;5042025;28;20380;-59
2022/10/25 10:36:28;;;;;;;124.43;117.25;;;16.00;99.90;;;;;;5041050;28;20903;-57
2022/10/25 10:39:11;;;;;;;130.40;122.80;;;16.00;99.90;;;;;;5042598;28;20392;-59
2022/10/25 10:42:03;;;;;;;115.40;108.80;;;16.10;99.90;;;;;;5040036;28;20492;-59
2022/10/25 10:44:33;;;;;;;114.15;107.88;;;16.00;99.90;;;;;;5038023;28;20793;-59
2022/10/25 10:47:10;;;;;;;122.60;115.57;;;16.10;99.90;;;;;;5037619;28;20801;-57
2022/10/25 10:49:41;;;;;;;125.75;118.40;;;16.10;99.90;;;;;;5034976;28;20425;-59
2022/10/25 10:52:28;;;;;;;124.63;117.53;;;16.10;99.90;;;;;;5029208;28;20542;-59
2022/10/25 10:54:54;;;;;;;122.35;115.25;;;16.10;99.90;;;;;;5027338;28;20462;-58
2022/10/25 10:57:32;;;;;;;126.63;119.30;;;16.10;99.90;;;;;;5026499;28;20819;-59
2022/10/25 11:00:00;;;;;;;104.13;97.93;;;16.10;99.90;;;;;;5026008;28;20416;-57
2022/10/25 11:02:41;;;;;;;112.25;105.50;;;16.00;99.90;;;;;;5025161;28;20394;-57
2022/10/25 11:05:33;;;;;;;106.47;100.30;;;16.10;99.90;;;;;;5025850;28;21065;-59
2022/10/25 11:08:08;;;;;;;112.03;105.70;;;16.30;99.90;;;;;;5030576;28;20777;-58
2022/10/25 11:10:37;;;;;;;111.10;104.85;;;16.50;99.90;;;;;;5029162;28;20420;-59
2022/10/25 11:13:17;;;;;;;98.30;92.63;;;16.60;99.90;;;;;;5030658;28;20388;-59
2022/10/25 11:16:17;;;;;;;93.78;88.35;;;16.70;99.90;;;;;;5034922;28;20401;-59
2022/10/25 11:18:58;;;;;;;84.70;79.68;;;16.60;99.90;;;;;;5038364;28;20424;-59
2022/10/25 11:21:42;;;;;;;90.32;85.13;;;16.60;99.90;;;;;;5036413;28;20497;-59
2022/10/25 11:24:26;;;;;;;94.10;88.75;;;16.60;99.90;;;;;;5038720;28;20862;-58
2022/10/25 11:26:59;;;;;;;81.50;76.63;;;16.60;99.90;;;;;;5034166;28;20401;-57
2022/10/25 11:29:37;;;;;;;74.68;70.15;;;16.90;99.90;;;;;;5035103;28;20640;-60
2022/10/25 11:32:29;;;;;;;83.03;78.27;;;17.10;99.90;;;;;;5031031;28;20385;-57
2022/10/25 11:35:17;;;;;;;77.00;72.63;;;17.30;99.90;;;;;;4992480;28;20690;-58
2022/10/25 11:37:50;;;;;;;76.30;71.83;;;17.30;99.90;;;;;;5027763;28;20514;-59
2022/10/25 11:40:37;;;;;;;76.85;72.68;;;17.40;99.90;;;;;;5030115;28;20512;-57
2022/10/25 11:43:03;;;;;;;69.00;65.10;;;17.20;99.90;;;;;;5031364;28;20833;-59
2022/10/25 11:45:39;;;;;;;65.73;61.57;;;17.10;99.90;;;;;;5028630;28;20451;-57
2022/10/25 11:48:41;;;;;;;73.88;69.47;;;17.10;99.90;;;;;;5028670;28;20382;-56
2022/10/25 11:51:25;;;;;;;88.00;83.05;;;17.10;99.90;;;;;;5030733;28;20892;-58
2022/10/25 11:54:12;;;;;;;87.78;82.88;;;17.20;99.90;;;;;;5029897;28;20472;-59
2022/10/25 11:56:40;;;;;;;136.87;129.57;;;17.40;99.90;;;;;;5030547;28;20469;-59
2022/10/25 11:59:22;;;;;;;186.40;176.50;;;17.70;99.90;;;;;;5028251;28;20737;-59
2022/10/25 12:02:07;;;;;;;160.35;151.10;;;18.10;99.90;;;;;;5027961;28;20484;-60
2022/10/25 12:04:40;;;;;;;134.53;126.87;;;18.30;99.90;;;;;;5026618;28;20725;-57
2022/10/25 12:07:17;;;;;;;104.00;98.10;;;18.60;99.90;;;;;;5025136;28;20398;-60
2022/10/25 12:09:54;;;;;;;87.28;82.30;;;18.80;99.90;;;;;;5022724;28;20405;-58
2022/10/25 12:12:25;;;;;;;64.55;60.65;;;18.70;99.90;;;;;;5022192;28;20447;-60
2022/10/25 12:14:56;;;;;;;84.78;79.85;;;18.50;99.90;;;;;;5024706;28;20483;-59
2022/10/25 12:17:26;;;;;;;107.65;101.68;;;18.50;99.90;;;;;;5029986;28;20397;-59
2022/10/25 12:19:58;;;;;;;110.05;103.95;;;18.50;99.90;;;;;;5028327;28;20408;-59
2022/10/25 12:22:29;;;;;;;86.72;81.82;;;18.30;99.90;;;;;;5027559;28;20665;-57
2022/10/25 12:24:59;;;;;;;83.95;78.90;;;18.30;99.90;;;;;;5031266;28;20404;-57
2022/10/25 12:27:26;;;;;;;115.77;109.23;;;18.20;99.90;;;;;;5028700;28;20441;-59
2022/10/25 12:30:02;;;;;;;91.18;86.05;;;18.20;99.90;;;;;;5027452;28;20424;-55
2022/10/25 12:32:42;;;;;;;107.05;101.18;;;18.40;99.90;;;;;;5027171;28;20550;-57
2022/10/25 12:35:21;;;;;;;122.78;115.63;;;18.50;99.90;;;;;;5029871;28;20392;-59
2022/10/25 12:37:57;;;;;;;97.60;92.07;;;18.60;99.90;;;;;;5032138;28;20784;-58
2022/10/25 12:40:23;;;;;;;119.55;112.82;;;18.70;99.90;;;;;;5035327;28;20487;-57